createdAt,value
2019-03-18T00:00:12.464Z,2.10
2019-03-18T00:02:13.302Z,2.20
2019-03-18T00:04:14.126Z,2.10
2019-03-18T00:06:15.248Z,2.30
2019-03-18T00:08:16.085Z,2.10
2019-03-18T00:10:16.969Z,2.37
2019-03-18T00:12:17.815Z,2.03
2019-03-18T00:14:18.649Z,2.10
2019-03-18T00:16:19.482Z,2.00
2019-03-18T00:18:20.343Z,2.20
2019-03-18T00:20:21.179Z,2.30
2019-03-18T00:22:22.011Z,2.37
2019-03-18T00:24:22.853Z,2.20
2019-03-18T00:26:23.679Z,2.50
2019-03-18T00:28:24.806Z,1.77
2019-03-18T00:30:25.669Z,1.90
2019-03-18T00:32:26.625Z,1.90
2019-03-18T00:34:27.824Z,1.80
2019-03-18T00:36:28.677Z,2.27
2019-03-18T00:38:29.509Z,1.90
2019-03-18T00:40:30.339Z,1.87
2019-03-18T00:42:31.205Z,2.07
2019-03-18T00:44:32.307Z,1.70
2019-03-18T00:46:33.156Z,2.00
2019-03-18T00:48:34.089Z,1.80
2019-03-18T00:50:34.941Z,1.80
2019-03-18T00:52:36.197Z,1.70
2019-03-18T00:54:37.086Z,1.87
2019-03-18T00:56:37.912Z,1.83
2019-03-18T00:58:38.777Z,1.53
2019-03-18T01:00:39.644Z,1.73
2019-03-18T01:02:40.485Z,1.80
2019-03-18T01:04:41.308Z,2.47
2019-03-18T01:06:42.165Z,2.60
2019-03-18T01:08:43.008Z,2.07
2019-03-18T01:10:43.840Z,1.80
2019-03-18T01:12:44.696Z,1.57
2019-03-18T01:14:45.540Z,2.10
2019-03-18T01:16:46.396Z,1.80
2019-03-18T01:18:47.225Z,2.40
2019-03-18T01:20:48.056Z,2.70
2019-03-18T01:22:48.905Z,2.43
2019-03-18T01:24:49.742Z,2.17
2019-03-18T01:26:50.581Z,1.83
2019-03-18T01:28:51.405Z,1.90
2019-03-18T01:30:52.256Z,1.90
2019-03-18T01:32:53.088Z,1.50
2019-03-18T01:34:53.944Z,1.80
2019-03-18T01:36:54.844Z,2.07
2019-03-18T01:38:55.681Z,1.80
2019-03-18T01:40:56.521Z,1.90
2019-03-18T01:42:57.365Z,2.00
2019-03-18T01:44:58.477Z,1.57
2019-03-18T01:46:59.646Z,1.60
2019-03-18T01:49:00.480Z,1.67
2019-03-18T01:51:01.324Z,1.60
2019-03-18T01:53:02.197Z,1.70
2019-03-18T01:55:03.029Z,1.73
2019-03-18T01:57:03.852Z,1.70
2019-03-18T01:59:04.804Z,1.90
2019-03-18T02:01:05.624Z,1.60
2019-03-18T02:03:06.744Z,1.70
2019-03-18T02:05:07.611Z,1.53
2019-03-18T02:07:08.452Z,1.80
2019-03-18T02:09:09.301Z,1.77
2019-03-18T02:11:10.725Z,1.90
2019-03-18T02:13:11.584Z,1.60
2019-03-18T02:15:12.436Z,1.80
2019-03-18T02:17:13.264Z,1.70
2019-03-18T02:19:14.104Z,2.00
2019-03-18T02:21:14.965Z,1.83
2019-03-18T02:23:16.080Z,1.80
2019-03-18T02:25:17.216Z,1.73
2019-03-18T02:27:18.078Z,1.70
2019-03-18T02:29:19.289Z,1.60
2019-03-18T02:31:20.460Z,2.10
2019-03-18T02:33:21.318Z,2.00
2019-03-18T02:35:22.193Z,2.03
2019-03-18T02:37:23.344Z,2.00
2019-03-18T02:39:24.194Z,1.70
2019-03-18T02:41:25.020Z,1.80
2019-03-18T02:43:25.886Z,1.63
2019-03-18T02:45:26.727Z,1.90
2019-03-18T02:47:27.568Z,1.80
2019-03-18T02:49:28.404Z,1.73
2019-03-18T02:51:29.272Z,1.77
2019-03-18T02:53:30.085Z,1.87
2019-03-18T02:55:31.021Z,1.90
2019-03-18T02:57:31.969Z,1.90
2019-03-18T02:59:32.807Z,2.10
2019-03-18T03:01:33.658Z,2.00
2019-03-18T03:03:37.054Z,1.90
2019-03-18T03:05:37.349Z,2.00
2019-03-18T03:07:38.216Z,1.90
2019-03-18T03:09:39.048Z,2.00
2019-03-18T03:11:39.877Z,1.90
2019-03-18T03:13:40.717Z,2.00
2019-03-18T03:15:41.586Z,1.87
2019-03-18T03:17:42.429Z,2.00
2019-03-18T03:19:43.274Z,1.97
2019-03-18T03:21:44.541Z,1.93
2019-03-18T03:23:45.398Z,2.00
2019-03-18T03:25:46.246Z,2.20
2019-03-18T03:27:47.139Z,2.00
2019-03-18T03:29:47.996Z,2.17
2019-03-18T03:31:48.893Z,2.13
2019-03-18T03:33:49.882Z,2.03
2019-03-18T03:35:50.989Z,1.93
2019-03-18T03:37:51.822Z,2.23
2019-03-18T03:39:52.650Z,2.60
2019-03-18T03:41:53.786Z,2.40
2019-03-18T03:43:54.637Z,2.30
2019-03-18T03:45:55.516Z,2.10
2019-03-18T03:47:56.452Z,2.30
2019-03-18T03:49:57.285Z,2.00
2019-03-18T03:51:58.113Z,2.23
2019-03-18T03:53:58.966Z,2.23
2019-03-18T03:55:59.823Z,2.23
2019-03-18T03:58:00.967Z,2.30
2019-03-18T04:00:01.820Z,2.20
2019-03-18T04:02:02.693Z,2.00
2019-03-18T04:04:03.559Z,2.33
2019-03-18T04:06:04.396Z,2.13
2019-03-18T04:08:05.559Z,2.10
2019-03-18T04:10:06.416Z,2.20
2019-03-18T04:12:07.253Z,2.20
2019-03-18T04:14:08.115Z,2.20
2019-03-18T04:16:08.945Z,2.10
2019-03-18T04:18:09.777Z,2.50
2019-03-18T04:20:10.645Z,2.00
2019-03-18T04:22:11.509Z,2.10
2019-03-18T04:24:12.340Z,2.20
2019-03-18T04:26:13.453Z,2.10
2019-03-18T04:28:14.315Z,2.20
2019-03-18T04:30:15.425Z,2.20
2019-03-18T04:32:16.282Z,2.23
2019-03-18T04:34:17.117Z,2.40
2019-03-18T04:36:17.950Z,2.00
2019-03-18T04:38:18.796Z,2.10
2019-03-18T04:40:19.650Z,2.10
2019-03-18T04:42:20.501Z,2.07
2019-03-18T04:44:21.340Z,2.30
2019-03-18T04:46:22.177Z,2.30
2019-03-18T04:48:23.333Z,2.67
2019-03-18T04:50:24.159Z,2.40
2019-03-18T04:52:25.030Z,2.37
2019-03-18T04:54:25.887Z,2.30
2019-03-18T04:56:26.737Z,2.43
2019-03-18T04:58:27.587Z,2.63
2019-03-18T05:00:28.748Z,2.40
2019-03-18T05:02:29.601Z,2.13
2019-03-18T05:04:30.433Z,2.27
2019-03-18T05:06:31.286Z,2.20
2019-03-18T05:08:32.118Z,2.00
2019-03-18T05:10:32.952Z,2.00
2019-03-18T05:12:33.788Z,2.00
2019-03-18T05:14:34.630Z,2.00
2019-03-18T05:16:35.475Z,2.43
2019-03-18T05:18:36.809Z,2.70
2019-03-18T05:20:37.784Z,2.20
2019-03-18T05:22:38.652Z,2.10
2019-03-18T05:24:39.494Z,2.13
2019-03-18T05:26:40.333Z,1.87
2019-03-18T05:28:41.165Z,2.30
2019-03-18T05:30:41.997Z,2.17
2019-03-18T05:32:42.848Z,2.10
2019-03-18T05:34:44.025Z,2.30
2019-03-18T05:36:44.856Z,2.20
2019-03-18T05:38:45.705Z,2.13
2019-03-18T05:40:46.553Z,2.30
2019-03-18T05:42:47.396Z,1.90
2019-03-18T05:44:48.240Z,2.10
2019-03-18T05:46:49.109Z,2.07
2019-03-18T05:48:49.961Z,2.13
2019-03-18T05:50:50.821Z,2.00
2019-03-18T05:52:51.648Z,2.10
2019-03-18T05:54:52.486Z,2.30
2019-03-18T05:56:53.628Z,2.00
2019-03-18T05:58:54.477Z,2.20
2019-03-18T06:00:55.321Z,2.23
2019-03-18T06:02:56.178Z,2.20
2019-03-18T06:04:57.008Z,2.23
2019-03-18T06:06:57.889Z,2.30
2019-03-18T06:08:58.740Z,2.10
2019-03-18T06:10:59.585Z,2.20
2019-03-18T06:13:00.450Z,2.37
2019-03-18T06:15:01.277Z,2.40
2019-03-18T06:17:02.109Z,2.43
2019-03-18T06:19:02.985Z,2.47
2019-03-18T06:21:03.825Z,2.40
2019-03-18T06:23:04.663Z,2.40
2019-03-18T06:25:05.523Z,2.43
2019-03-18T06:27:06.350Z,2.63
2019-03-18T06:29:07.187Z,2.40
2019-03-18T06:31:08.042Z,2.50
2019-03-18T06:33:08.975Z,2.50
2019-03-18T06:35:09.804Z,2.50
2019-03-18T06:37:10.700Z,2.30
2019-03-18T06:39:11.537Z,2.23
2019-03-18T06:41:12.376Z,2.40
2019-03-18T06:43:13.223Z,2.20
2019-03-18T06:45:14.059Z,2.40
2019-03-18T06:47:14.891Z,2.07
2019-03-18T06:49:15.737Z,2.27
2019-03-18T06:51:16.624Z,2.60
2019-03-18T06:53:17.491Z,2.50
2019-03-18T06:55:18.308Z,2.27
2019-03-18T06:57:19.168Z,2.07
2019-03-18T06:59:20.017Z,2.40
2019-03-18T07:01:20.881Z,2.20
2019-03-18T07:03:21.750Z,2.20
2019-03-18T07:05:22.585Z,2.00
2019-03-18T07:07:23.484Z,2.20
2019-03-18T07:09:24.335Z,1.90
2019-03-18T07:11:25.157Z,2.03
2019-03-18T07:13:26.013Z,2.40
2019-03-18T07:15:27.767Z,2.10
2019-03-18T07:17:30.557Z,2.30
2019-03-18T07:19:31.653Z,2.40
2019-03-18T07:21:32.516Z,2.20
2019-03-18T07:23:33.344Z,2.40
2019-03-18T07:25:34.201Z,2.50
2019-03-18T07:27:35.385Z,2.30
2019-03-18T07:29:36.241Z,2.23
2019-03-18T07:31:37.073Z,2.20
2019-03-18T07:33:37.918Z,2.20
2019-03-18T07:35:38.757Z,2.30
2019-03-18T07:37:39.622Z,2.20
2019-03-18T07:39:40.458Z,2.10
2019-03-18T07:41:41.320Z,2.47
2019-03-18T07:43:42.181Z,2.30
2019-03-18T07:45:43.288Z,2.20
2019-03-18T07:47:44.126Z,2.10
2019-03-18T07:49:44.984Z,2.17
2019-03-18T07:51:45.848Z,2.33
2019-03-18T07:53:46.771Z,2.20
2019-03-18T07:55:47.864Z,2.47
2019-03-18T07:57:48.729Z,2.37
2019-03-18T07:59:49.685Z,2.40
2019-03-18T08:01:50.615Z,2.40
2019-03-18T08:03:51.448Z,2.50
2019-03-18T08:05:52.292Z,2.30
2019-03-18T08:07:53.500Z,2.50
2019-03-18T08:09:54.364Z,2.70
2019-03-18T08:11:55.288Z,2.50
2019-03-18T08:13:56.133Z,2.63
2019-03-18T08:15:56.995Z,2.50
2019-03-18T08:17:57.830Z,2.20
2019-03-18T08:19:58.684Z,2.50
2019-03-18T08:21:59.552Z,3.00
2019-03-18T08:24:00.384Z,3.00
2019-03-18T08:26:01.208Z,2.87
2019-03-18T08:28:02.049Z,2.70
2019-03-18T08:30:02.905Z,2.70
2019-03-18T08:32:03.748Z,2.60
2019-03-18T08:34:04.636Z,2.80
2019-03-18T08:36:05.501Z,2.47
2019-03-18T08:38:06.323Z,2.70
2019-03-18T08:40:07.161Z,2.83
2019-03-18T08:42:07.997Z,2.60
2019-03-18T08:44:08.872Z,2.77
2019-03-18T08:46:09.772Z,2.87
2019-03-18T08:48:10.604Z,3.00
2019-03-18T08:50:12.409Z,3.27
2019-03-18T08:52:13.795Z,3.10
2019-03-18T08:54:14.924Z,3.20
2019-03-18T08:56:15.809Z,2.83
2019-03-18T08:58:16.648Z,2.50
2019-03-18T09:00:18.003Z,3.10
2019-03-18T09:02:18.852Z,3.30
2019-03-18T09:04:19.715Z,3.13
2019-03-18T09:06:20.568Z,3.07
2019-03-18T09:08:21.401Z,3.10
2019-03-18T09:10:22.240Z,3.10
2019-03-18T09:12:23.085Z,2.70
2019-03-18T09:14:23.942Z,3.40
2019-03-18T09:16:24.790Z,3.80
2019-03-18T09:18:25.626Z,3.03
2019-03-18T09:20:26.480Z,3.00
2019-03-18T09:22:27.314Z,3.70
2019-03-18T09:24:28.161Z,3.67
2019-03-18T09:26:28.996Z,2.80
2019-03-18T09:28:29.919Z,3.20
2019-03-18T09:30:31.036Z,2.87
2019-03-18T09:32:31.894Z,3.00
2019-03-18T09:34:32.732Z,2.90
2019-03-18T09:36:33.688Z,3.00
2019-03-18T09:38:34.560Z,2.80
2019-03-18T09:40:35.425Z,2.60
2019-03-18T09:42:36.517Z,2.70
2019-03-18T09:44:37.355Z,2.00
2019-03-18T09:46:38.209Z,2.10
2019-03-18T09:48:39.051Z,2.90
2019-03-18T09:50:39.897Z,2.80
2019-03-18T09:52:40.732Z,2.10
2019-03-18T09:54:41.565Z,2.27
2019-03-18T09:56:42.421Z,2.40
2019-03-18T09:58:43.305Z,2.13
2019-03-18T10:00:44.349Z,2.50
2019-03-18T10:02:45.485Z,2.50
2019-03-18T10:04:46.331Z,2.00
2019-03-18T10:06:48.460Z,1.80
2019-03-18T10:08:49.832Z,3.27
2019-03-18T10:10:50.957Z,5.77
2019-03-18T10:12:52.847Z,2.40
2019-03-18T10:14:53.696Z,1.90
2019-03-18T10:16:54.533Z,2.10
2019-03-18T10:18:55.397Z,2.10
2019-03-18T10:20:56.244Z,2.27
2019-03-18T10:22:57.092Z,2.40
2019-03-18T10:24:57.957Z,2.30
2019-03-18T10:26:58.789Z,2.70
2019-03-18T10:28:59.634Z,2.20
2019-03-18T10:31:00.536Z,2.33
2019-03-18T10:33:01.965Z,2.00
2019-03-18T10:35:03.117Z,2.23
2019-03-18T10:37:04.000Z,2.30
2019-03-18T10:39:04.852Z,2.30
2019-03-18T10:41:05.997Z,2.30
2019-03-18T10:43:07.915Z,2.30
2019-03-18T10:45:08.781Z,2.03
2019-03-18T10:47:09.617Z,2.20
2019-03-18T10:49:10.457Z,2.20
2019-03-18T10:51:11.622Z,2.50
2019-03-18T10:53:12.477Z,2.20
2019-03-18T10:55:13.346Z,2.30
2019-03-18T10:57:14.255Z,2.23
2019-03-18T10:59:15.118Z,2.40
2019-03-18T11:01:15.956Z,2.33
2019-03-18T11:03:17.104Z,2.53
2019-03-18T11:05:18.200Z,2.03
2019-03-18T11:07:19.121Z,2.07
2019-03-18T11:09:19.955Z,2.10
2019-03-18T11:11:20.805Z,2.30
2019-03-18T11:13:21.661Z,2.03
2019-03-18T11:15:22.505Z,2.10
2019-03-18T11:17:23.344Z,2.00
2019-03-18T11:19:24.168Z,2.00
2019-03-18T11:21:25.016Z,1.70
2019-03-18T11:23:26.161Z,1.90
2019-03-18T11:25:27.308Z,1.87
2019-03-18T11:27:28.149Z,1.90
2019-03-18T11:29:29.009Z,1.90
2019-03-18T11:31:29.847Z,1.80
2019-03-18T11:33:30.684Z,1.83
2019-03-18T11:35:31.528Z,1.80
2019-03-18T11:37:32.368Z,2.20
2019-03-18T11:39:33.198Z,2.00
2019-03-18T11:41:34.053Z,1.70
2019-03-18T11:43:34.891Z,2.00
2019-03-18T11:45:36.060Z,1.73
2019-03-18T11:47:36.905Z,2.10
2019-03-18T11:49:39.931Z,2.30
2019-03-18T11:51:40.488Z,1.90
2019-03-18T11:53:41.637Z,1.83
2019-03-18T11:55:42.501Z,1.93
2019-03-18T11:57:43.604Z,1.80
2019-03-18T11:59:46.738Z,2.00
2019-03-18T12:01:47.302Z,1.80
2019-03-18T12:03:48.156Z,2.00
2019-03-18T12:05:48.994Z,1.80
2019-03-18T12:07:49.864Z,2.50
2019-03-18T12:09:50.701Z,1.63
2019-03-18T12:11:51.537Z,1.70
2019-03-18T12:13:52.376Z,1.70
2019-03-18T12:15:53.572Z,1.50
2019-03-18T12:17:55.638Z,2.60
2019-03-18T12:19:56.508Z,1.97
2019-03-18T12:21:57.354Z,2.00
2019-03-18T12:23:58.188Z,1.80
2019-03-18T12:25:59.376Z,2.03
2019-03-18T12:28:00.322Z,2.20
2019-03-18T12:30:01.252Z,2.50
2019-03-18T12:32:02.382Z,2.23
2019-03-18T12:34:03.500Z,1.80
2019-03-18T12:36:04.668Z,2.17
2019-03-18T12:38:05.520Z,2.10
2019-03-18T12:40:06.357Z,2.00
2019-03-18T12:42:07.299Z,1.67
2019-03-18T12:44:08.140Z,1.87
2019-03-18T12:46:09.332Z,1.80
2019-03-18T12:48:10.192Z,1.60
2019-03-18T12:50:11.117Z,2.00
2019-03-18T12:52:11.944Z,1.50
2019-03-18T12:54:12.788Z,1.60
2019-03-18T12:56:13.616Z,1.50
2019-03-18T12:58:14.460Z,1.60
2019-03-18T13:00:15.971Z,1.43
2019-03-18T13:02:16.794Z,1.70
2019-03-18T13:04:17.954Z,3.00
2019-03-18T13:06:18.808Z,1.70
2019-03-18T13:08:19.645Z,2.57
2019-03-18T13:10:21.805Z,2.37
2019-03-18T13:12:23.047Z,1.87
2019-03-18T13:14:23.885Z,1.90
2019-03-18T13:16:24.712Z,2.00
2019-03-18T13:18:25.552Z,2.17
2019-03-18T13:20:26.483Z,2.10
2019-03-18T13:22:27.344Z,1.60
2019-03-18T13:24:28.183Z,1.40
2019-03-18T13:26:29.067Z,1.73
2019-03-18T13:28:30.225Z,1.70
2019-03-18T13:30:31.168Z,1.30
2019-03-18T13:32:32.004Z,2.07
2019-03-18T13:34:32.856Z,3.40
2019-03-18T13:36:33.697Z,1.70
2019-03-18T13:38:34.556Z,1.83
2019-03-18T13:40:35.388Z,1.90
2019-03-18T13:42:36.329Z,1.60
2019-03-18T13:44:37.488Z,1.50
2019-03-18T13:46:38.320Z,1.40
2019-03-18T13:48:39.180Z,1.77
2019-03-18T13:50:40.012Z,1.50
2019-03-18T13:52:40.845Z,1.40
2019-03-18T13:54:42.008Z,1.23
2019-03-18T13:56:42.912Z,1.43
2019-03-18T13:58:43.766Z,1.80
2019-03-18T14:00:44.969Z,1.80
2019-03-18T14:02:45.910Z,2.00
2019-03-18T14:04:46.760Z,1.70
2019-03-18T14:06:47.713Z,2.03
2019-03-18T14:08:48.556Z,1.70
2019-03-18T14:10:49.450Z,1.60
2019-03-18T14:12:50.310Z,1.97
2019-03-18T14:14:51.148Z,1.80
2019-03-18T14:16:51.989Z,1.70
2019-03-18T14:18:52.825Z,1.60
2019-03-18T14:20:53.693Z,1.53
2019-03-18T14:22:54.547Z,1.70
2019-03-18T14:24:55.352Z,1.90
2019-03-18T14:26:56.537Z,1.77
2019-03-18T14:28:57.377Z,1.90
2019-03-18T14:30:58.508Z,1.80
2019-03-18T14:32:59.362Z,1.80
2019-03-18T14:35:00.362Z,2.00
2019-03-18T14:37:01.315Z,1.83
2019-03-18T14:39:03.578Z,1.73
2019-03-18T14:41:04.406Z,2.10
2019-03-18T14:43:05.269Z,1.90
2019-03-18T14:45:06.189Z,1.80
2019-03-18T14:47:07.123Z,2.10
2019-03-18T14:49:08.657Z,1.60
2019-03-18T14:51:09.668Z,1.63
2019-03-18T14:53:10.521Z,1.90
2019-03-18T14:55:11.351Z,1.90
2019-03-18T14:57:12.180Z,1.60
2019-03-18T14:59:13.037Z,1.90
2019-03-18T15:01:14.057Z,1.90
2019-03-18T15:03:14.907Z,2.00
2019-03-18T15:05:15.736Z,1.90
2019-03-18T15:07:16.582Z,2.10
2019-03-18T15:09:17.414Z,1.87
2019-03-18T15:11:18.273Z,2.07
2019-03-18T15:13:30.361Z,1.97
2019-03-18T15:15:21.878Z,2.13
2019-03-18T15:17:22.727Z,2.13
2019-03-18T15:19:23.544Z,2.20
2019-03-18T15:21:24.404Z,2.10
2019-03-18T15:23:25.240Z,2.10
2019-03-18T15:25:26.077Z,1.90
2019-03-18T15:27:27.078Z,1.90
2019-03-18T15:29:27.944Z,2.03
2019-03-18T15:31:29.105Z,2.20
2019-03-18T15:33:30.269Z,2.00
2019-03-18T15:35:31.117Z,2.00
2019-03-18T15:37:31.970Z,1.90
2019-03-18T15:39:32.813Z,2.20
2019-03-18T15:41:33.664Z,1.83
2019-03-18T15:43:34.488Z,2.30
2019-03-18T15:45:35.345Z,2.33
2019-03-18T15:47:36.196Z,2.20
2019-03-18T15:49:37.034Z,2.33
2019-03-18T15:51:37.881Z,2.37
2019-03-18T15:53:38.982Z,2.30
2019-03-18T15:55:39.884Z,2.10
2019-03-18T15:57:41.088Z,2.20
2019-03-18T15:59:42.002Z,2.30
2019-03-18T16:01:44.864Z,2.17
2019-03-18T16:03:45.731Z,3.17
2019-03-18T16:05:46.554Z,2.80
2019-03-18T16:07:47.416Z,2.83
2019-03-18T16:09:49.514Z,2.63
2019-03-18T16:11:50.690Z,2.47
2019-03-18T16:13:51.533Z,3.10
2019-03-18T16:15:52.376Z,2.93
2019-03-18T16:17:53.209Z,2.60
2019-03-18T16:19:54.082Z,2.13
2019-03-18T16:21:54.917Z,2.50
2019-03-18T16:23:55.760Z,2.70
2019-03-18T16:25:56.592Z,2.37
2019-03-18T16:27:57.565Z,2.60
2019-03-18T16:29:58.418Z,2.50
2019-03-18T16:32:10.789Z,2.47
2019-03-18T16:34:02.276Z,2.80
2019-03-18T16:36:03.125Z,3.10
2019-03-18T16:38:03.975Z,2.50
2019-03-18T16:40:05.373Z,3.60
2019-03-18T16:42:06.453Z,3.37
2019-03-18T16:44:07.316Z,3.93
2019-03-18T16:46:08.177Z,3.10
2019-03-18T16:48:09.044Z,2.90
2019-03-18T16:50:09.877Z,2.67
2019-03-18T16:52:10.856Z,2.80
2019-03-18T16:54:11.714Z,3.00
2019-03-18T16:56:12.553Z,2.90
2019-03-18T16:58:13.417Z,3.00
2019-03-18T17:00:14.255Z,2.70
2019-03-18T17:02:15.084Z,2.60
2019-03-18T17:04:15.938Z,3.23
2019-03-18T17:06:16.797Z,2.60
2019-03-18T17:08:17.620Z,2.50
2019-03-18T17:10:18.460Z,3.13
2019-03-18T17:12:19.312Z,2.80
2019-03-18T17:14:20.157Z,2.30
2019-03-18T17:16:20.992Z,2.40
2019-03-18T17:18:22.181Z,2.30
2019-03-18T17:20:23.013Z,2.60
2019-03-18T17:22:23.869Z,2.30
2019-03-18T17:24:24.700Z,2.30
2019-03-18T17:26:25.540Z,2.50
2019-03-18T17:28:26.396Z,2.30
2019-03-18T17:30:27.237Z,2.20
2019-03-18T17:32:28.425Z,2.10
2019-03-18T17:34:29.308Z,2.20
2019-03-18T17:36:30.175Z,33.97
2019-03-18T17:38:31.029Z,10.07
2019-03-18T17:40:31.876Z,2.20
2019-03-18T17:42:32.747Z,2.30
2019-03-18T17:44:36.148Z,2.40
2019-03-18T17:46:36.366Z,2.40
2019-03-18T17:48:37.193Z,2.50
2019-03-18T17:50:38.037Z,2.40
2019-03-18T17:52:38.864Z,2.53
2019-03-18T17:54:40.041Z,2.47
2019-03-18T17:56:40.917Z,2.70
2019-03-18T17:58:43.091Z,3.00
2019-03-18T18:00:46.495Z,2.70
2019-03-18T18:02:47.331Z,3.13
2019-03-18T18:04:48.165Z,3.47
2019-03-18T18:06:49.028Z,3.10
2019-03-18T18:08:49.869Z,2.70
2019-03-18T18:10:50.709Z,2.70
2019-03-18T18:12:51.611Z,2.50
2019-03-18T18:14:52.765Z,3.10
2019-03-18T18:16:53.658Z,2.33
2019-03-18T18:18:54.554Z,2.30
2019-03-18T18:20:55.381Z,2.67
2019-03-18T18:22:56.352Z,2.90
2019-03-18T18:24:58.012Z,3.07
2019-03-18T18:26:59.025Z,3.20
2019-03-18T18:29:00.149Z,2.90
2019-03-18T18:31:00.986Z,3.10
2019-03-18T18:33:01.812Z,2.60
2019-03-18T18:35:02.933Z,2.80
2019-03-18T18:37:03.792Z,2.90
2019-03-18T18:39:04.623Z,3.10
2019-03-18T18:41:05.484Z,2.63
2019-03-18T18:43:06.320Z,2.80
2019-03-18T18:45:07.166Z,3.00
2019-03-18T18:47:08.016Z,2.70
2019-03-18T18:49:08.862Z,3.30
2019-03-18T18:51:09.708Z,3.10
2019-03-18T18:53:10.861Z,2.90
2019-03-18T18:55:11.792Z,2.70
2019-03-18T18:57:12.629Z,2.70
2019-03-18T18:59:13.458Z,2.97
2019-03-18T19:01:14.308Z,3.13
2019-03-18T19:03:15.429Z,2.93
2019-03-18T19:05:16.558Z,3.20
2019-03-18T19:07:17.720Z,2.90
2019-03-18T19:09:18.559Z,3.20
2019-03-18T19:11:19.404Z,3.10
2019-03-18T19:13:20.258Z,3.10
2019-03-18T19:15:21.100Z,3.70
2019-03-18T19:17:21.937Z,3.80
2019-03-18T19:19:22.805Z,3.50
2019-03-18T19:21:23.658Z,3.50
2019-03-18T19:23:24.491Z,3.80
2019-03-18T19:25:25.339Z,3.80
2019-03-18T19:27:26.172Z,3.67
2019-03-18T19:29:27.004Z,3.13
2019-03-18T19:31:28.100Z,3.40
2019-03-18T19:33:29.764Z,3.30
2019-03-18T19:35:30.601Z,3.57
2019-03-18T19:37:31.420Z,3.40
2019-03-18T19:39:32.588Z,3.80
2019-03-18T19:41:33.428Z,4.10
2019-03-18T19:43:34.254Z,3.80
2019-03-18T19:45:35.666Z,4.93
2019-03-18T19:47:36.500Z,5.23
2019-03-18T19:49:37.360Z,4.30
2019-03-18T19:51:38.194Z,5.03
2019-03-18T19:53:48.548Z,5.10
2019-03-18T19:55:41.849Z,5.07
2019-03-18T19:57:43.321Z,4.60
2019-03-18T19:59:44.214Z,4.43
2019-03-18T20:01:45.061Z,4.10
2019-03-18T20:03:45.896Z,3.90
2019-03-18T20:05:46.732Z,4.47
2019-03-18T20:07:47.590Z,4.23
2019-03-18T20:09:48.454Z,3.90
2019-03-18T20:11:49.580Z,4.27
2019-03-18T20:13:50.412Z,3.90
2019-03-18T20:15:51.577Z,4.47
2019-03-18T20:17:52.412Z,4.60
2019-03-18T20:19:53.277Z,4.60
2019-03-18T20:21:54.119Z,5.90
2019-03-18T20:24:00.857Z,7.57
2019-03-18T20:25:57.688Z,6.53
2019-03-18T20:27:58.545Z,8.17
2019-03-18T20:29:59.366Z,4.93
2019-03-18T20:32:00.792Z,4.83
2019-03-18T20:34:01.664Z,4.40
2019-03-18T20:36:03.599Z,3.97
2019-03-18T20:38:04.425Z,3.50
2019-03-18T20:40:05.294Z,3.97
2019-03-18T20:42:06.152Z,3.80
2019-03-18T20:44:07.033Z,3.83
2019-03-18T20:46:07.894Z,4.30
2019-03-18T20:48:08.802Z,4.50
2019-03-18T20:50:09.629Z,3.83
2019-03-18T20:52:16.828Z,4.40
2019-03-18T20:54:13.209Z,4.10
2019-03-18T20:56:14.671Z,4.30
2019-03-18T20:58:15.541Z,4.50
2019-03-18T21:00:16.389Z,4.70
2019-03-18T21:02:17.311Z,4.50
2019-03-18T21:04:18.159Z,4.33
2019-03-18T21:06:18.992Z,4.60
2019-03-18T21:08:19.845Z,4.17
2019-03-18T21:10:20.680Z,5.17
2019-03-18T21:12:21.522Z,5.30
2019-03-18T21:14:22.410Z,5.20
2019-03-18T21:16:23.250Z,5.43
2019-03-18T21:18:24.205Z,4.50
2019-03-18T21:20:25.450Z,5.03
2019-03-18T21:22:26.290Z,5.20
2019-03-18T21:24:27.143Z,4.43
2019-03-18T21:26:27.975Z,4.47
2019-03-18T21:28:29.143Z,4.97
2019-03-18T21:30:29.990Z,4.90
2019-03-18T21:32:30.852Z,4.80
2019-03-18T21:34:31.684Z,5.03
2019-03-18T21:36:37.919Z,5.60
2019-03-18T21:38:35.275Z,5.63
2019-03-18T21:40:36.128Z,6.10
2019-03-18T21:42:36.976Z,5.60
2019-03-18T21:44:37.813Z,5.50
2019-03-18T21:46:38.912Z,4.83
2019-03-18T21:48:39.756Z,5.10
2019-03-18T21:50:40.584Z,5.73
2019-03-18T21:52:41.432Z,6.90
2019-03-18T21:54:42.378Z,7.37
2019-03-18T21:56:43.280Z,7.60
2019-03-18T21:58:44.389Z,7.13
2019-03-18T22:00:45.245Z,6.80
2019-03-18T22:02:46.308Z,6.20
2019-03-18T22:04:47.163Z,6.67
2019-03-18T22:06:48.000Z,6.27
2019-03-18T22:08:48.828Z,5.63
2019-03-18T22:10:49.676Z,5.50
2019-03-18T22:12:50.857Z,5.30
2019-03-18T22:14:51.717Z,5.07
2019-03-18T22:16:52.796Z,5.60
2019-03-18T22:18:53.669Z,5.70
2019-03-18T22:20:54.522Z,5.60
2019-03-18T22:22:55.469Z,5.13
2019-03-18T22:24:56.556Z,6.27
2019-03-18T22:26:57.698Z,5.10
2019-03-18T22:28:58.849Z,5.20
2019-03-18T22:30:59.699Z,5.00
2019-03-18T22:33:00.801Z,5.20
2019-03-18T22:35:01.969Z,5.03
2019-03-18T22:37:03.104Z,5.40
2019-03-18T22:39:03.980Z,5.43
2019-03-18T22:41:05.188Z,5.87
2019-03-18T22:43:06.124Z,5.40
2019-03-18T22:45:06.972Z,5.60
2019-03-18T22:47:07.805Z,4.97
2019-03-18T22:49:08.832Z,5.60
2019-03-18T22:51:09.960Z,5.63
2019-03-18T22:53:10.801Z,6.00
2019-03-18T22:55:11.636Z,6.00
2019-03-18T22:57:12.584Z,6.23
2019-03-18T22:59:13.428Z,6.20
2019-03-18T23:01:17.332Z,6.13
2019-03-18T23:03:18.360Z,6.20
2019-03-18T23:05:19.384Z,6.50
2019-03-18T23:07:20.504Z,6.00
2019-03-18T23:09:21.360Z,6.73
2019-03-18T23:11:22.436Z,6.90
2019-03-18T23:13:23.289Z,6.50
2019-03-18T23:15:24.133Z,6.37
2019-03-18T23:17:25.273Z,6.10
2019-03-18T23:19:26.126Z,6.20
2019-03-18T23:21:26.968Z,6.80
2019-03-18T23:23:27.901Z,6.30
2019-03-18T23:25:28.866Z,7.07
2019-03-18T23:27:29.728Z,6.90
2019-03-18T23:29:30.889Z,6.83
2019-03-18T23:31:31.792Z,6.97
2019-03-18T23:33:32.702Z,7.17
2019-03-18T23:35:33.559Z,7.70
2019-03-18T23:37:34.736Z,7.00
2019-03-18T23:39:35.869Z,7.80
2019-03-18T23:41:36.716Z,7.83
2019-03-18T23:43:37.568Z,7.60
2019-03-18T23:45:38.401Z,8.07
2019-03-18T23:47:39.249Z,7.93
2019-03-18T23:49:40.091Z,8.30
2019-03-18T23:51:41.001Z,8.73
2019-03-18T23:53:41.887Z,8.80
2019-03-18T23:55:42.815Z,8.27
2019-03-18T23:57:43.648Z,8.57
2019-03-18T23:59:44.481Z,8.93
